createdAt,value
2023-05-16T00:00:07.157Z,101252.55
2023-05-16T00:01:07.852Z,101252.42
2023-05-16T00:02:08.517Z,101252.51
2023-05-16T00:03:09.224Z,101252.80
2023-05-16T00:04:09.634Z,101253.32
2023-05-16T00:05:10.354Z,101253.52
2023-05-16T00:06:11.255Z,101253.73
2023-05-16T00:07:11.919Z,101254.03
2023-05-16T00:08:12.051Z,101253.78
2023-05-16T00:09:12.715Z,101253.78
2023-05-16T00:10:13.280Z,101253.83
2023-05-16T00:10:26.987Z,101277.24
2023-05-16T00:11:27.406Z,101249.55
2023-05-16T00:12:27.996Z,101249.33
2023-05-16T00:13:28.721Z,101249.50
2023-05-16T00:14:28.852Z,101249.25
2023-05-16T00:15:29.681Z,101249.17
2023-05-16T00:16:30.537Z,101249.25
2023-05-16T00:17:31.082Z,101248.91
2023-05-16T00:18:31.728Z,101248.48
2023-05-16T00:19:32.267Z,101248.31
2023-05-16T00:20:32.801Z,101247.64
2023-05-16T00:21:33.475Z,101247.09
2023-05-16T00:22:34.102Z,101247.14
2023-05-16T00:23:34.717Z,101246.20
2023-05-16T00:24:35.285Z,101245.53
2023-05-16T00:25:35.393Z,101244.77
2023-05-16T00:26:36.100Z,101245.10
2023-05-16T00:27:37.672Z,101244.72
2023-05-16T00:28:37.244Z,101244.08
2023-05-16T00:29:38.853Z,101243.11
2023-05-16T00:30:38.208Z,101242.42
2023-05-16T00:31:38.927Z,101241.84
2023-05-16T00:32:39.573Z,101240.78
2023-05-16T00:33:40.064Z,101240.14
2023-05-16T00:34:40.945Z,101239.13
2023-05-16T00:35:41.383Z,101238.57
2023-05-16T00:36:42.070Z,101237.56
2023-05-16T00:37:42.603Z,101236.72
2023-05-16T00:38:43.255Z,101235.83
2023-05-16T00:39:43.752Z,101235.33
2023-05-16T00:40:44.672Z,101234.01
2023-05-16T00:41:45.314Z,101233.07
2023-05-16T00:42:45.935Z,101232.14
2023-05-16T00:42:54.562Z,101246.86
2023-05-16T00:43:55.067Z,101217.28
2023-05-16T00:44:55.620Z,101216.64
2023-05-16T00:45:56.127Z,101216.00
2023-05-16T00:46:56.296Z,101215.25
2023-05-16T00:47:56.998Z,101215.16
2023-05-16T00:48:57.740Z,101214.19
2023-05-16T00:49:58.405Z,101212.96
2023-05-16T00:51:00.289Z,101212.37
2023-05-16T00:51:59.908Z,101211.02
2023-05-16T00:53:00.712Z,101210.25
2023-05-16T00:54:01.242Z,101209.15
2023-05-16T00:55:01.391Z,101208.35
2023-05-16T00:56:01.808Z,101207.34
2023-05-16T00:57:02.419Z,101206.32
2023-05-16T00:58:03.140Z,101205.64
2023-05-16T00:59:03.791Z,101205.38
2023-05-16T01:00:05.295Z,101204.58
2023-05-16T01:01:05.112Z,101203.78
2023-05-16T01:02:05.539Z,101203.83
2023-05-16T01:03:06.353Z,101203.98
2023-05-16T01:04:06.915Z,101204.04
2023-05-16T01:05:07.521Z,101203.53
2023-05-16T01:06:08.305Z,101203.31
2023-05-16T01:07:09.120Z,101203.56
2023-05-16T01:08:09.843Z,101203.31
2023-05-16T01:09:10.493Z,101203.02
2023-05-16T01:10:11.109Z,101202.55
2023-05-16T01:11:11.638Z,101202.72
2023-05-16T01:12:12.297Z,101202.26
2023-05-16T01:13:12.931Z,101201.57
2023-05-16T01:13:23.624Z,101221.75
2023-05-16T01:14:24.320Z,101185.95
2023-05-16T01:15:25.204Z,101185.54
2023-05-16T01:16:25.514Z,101185.45
2023-05-16T01:17:25.908Z,101185.03
2023-05-16T01:18:26.519Z,101185.38
2023-05-16T01:19:27.194Z,101185.80
2023-05-16T01:20:27.631Z,101185.58
2023-05-16T01:21:28.268Z,101185.03
2023-05-16T01:22:29.220Z,101184.48
2023-05-16T01:23:29.822Z,101184.17
2023-05-16T01:24:31.656Z,101183.67
2023-05-16T01:25:31.285Z,101183.13
2023-05-16T01:26:31.885Z,101182.70
2023-05-16T01:27:32.515Z,101182.40
2023-05-16T01:28:33.113Z,101181.73
2023-05-16T01:29:33.834Z,101180.78
2023-05-16T01:30:34.522Z,101180.23
2023-05-16T01:31:35.431Z,101179.35
2023-05-16T01:32:36.055Z,101178.80
2023-05-16T01:33:36.592Z,101178.50
2023-05-16T01:34:37.547Z,101177.19
2023-05-16T01:35:38.205Z,101176.47
2023-05-16T01:36:38.885Z,101175.58
2023-05-16T01:37:39.107Z,101174.22
2023-05-16T01:38:40.024Z,101173.42
2023-05-16T01:39:40.109Z,101171.89
2023-05-16T01:40:40.931Z,101170.80
2023-05-16T01:41:41.685Z,101169.15
2023-05-16T01:42:42.384Z,101167.66
2023-05-16T01:43:43.065Z,101166.91
2023-05-16T01:43:51.742Z,101176.77
2023-05-16T01:44:51.874Z,101151.81
2023-05-16T01:45:52.504Z,101151.65
2023-05-16T01:46:53.186Z,101150.59
2023-05-16T01:47:53.705Z,101150.55
2023-05-16T01:48:54.227Z,101150.55
2023-05-16T01:49:54.824Z,101149.83
2023-05-16T01:50:55.693Z,101149.53
2023-05-16T01:51:56.271Z,101148.94
2023-05-16T01:52:56.783Z,101148.77
2023-05-16T01:53:57.473Z,101148.43
2023-05-16T01:54:58.079Z,101148.27
2023-05-16T01:55:58.629Z,101147.50
2023-05-16T01:56:59.433Z,101147.28
2023-05-16T01:58:00.150Z,101147.11
2023-05-16T01:59:00.877Z,101146.86
2023-05-16T02:00:01.574Z,101146.65
2023-05-16T02:01:01.697Z,101146.56
2023-05-16T02:02:02.171Z,101146.23
2023-05-16T02:03:02.917Z,101146.27
2023-05-16T02:04:03.770Z,101146.52
2023-05-16T02:05:04.479Z,101145.89
2023-05-16T02:06:05.038Z,101145.84
2023-05-16T02:07:05.619Z,101145.29
2023-05-16T02:08:06.524Z,101144.82
2023-05-16T02:09:07.053Z,101144.02
2023-05-16T02:10:08.124Z,101143.13
2023-05-16T02:11:07.646Z,101141.48
2023-05-16T02:12:08.347Z,101140.16
2023-05-16T02:13:08.526Z,101138.81
2023-05-16T02:14:09.075Z,101137.66
2023-05-16T02:15:09.769Z,101136.48
2023-05-16T02:16:10.382Z,101135.34
2023-05-16T02:16:19.059Z,101137.78
2023-05-16T02:17:19.651Z,101107.43
2023-05-16T02:18:19.946Z,101106.80
2023-05-16T02:19:20.622Z,101107.21
2023-05-16T02:20:21.108Z,101106.62
2023-05-16T02:21:21.755Z,101106.28
2023-05-16T02:22:22.279Z,101105.56
2023-05-16T02:23:23.141Z,101105.15
2023-05-16T02:24:24.099Z,101103.53
2023-05-16T02:25:24.994Z,101102.86
2023-05-16T02:26:25.232Z,101101.33
2023-05-16T02:27:25.790Z,101100.66
2023-05-16T02:28:26.309Z,101099.89
2023-05-16T02:29:26.902Z,101099.64
2023-05-16T02:30:27.507Z,101098.84
2023-05-16T02:31:28.200Z,101097.78
2023-05-16T02:32:28.534Z,101097.11
2023-05-16T02:33:29.367Z,101096.64
2023-05-16T02:34:30.989Z,101095.75
2023-05-16T02:35:30.803Z,101095.16
2023-05-16T02:36:31.093Z,101094.66
2023-05-16T02:37:32.460Z,101094.06
2023-05-16T02:38:31.782Z,101093.48
2023-05-16T02:39:32.360Z,101093.27
2023-05-16T02:40:33.032Z,101092.62
2023-05-16T02:41:33.551Z,101092.45
2023-05-16T02:42:34.207Z,101091.73
2023-05-16T02:43:34.873Z,101091.09
2023-05-16T02:44:35.394Z,101090.59
2023-05-16T02:45:36.045Z,101089.95
2023-05-16T02:46:36.956Z,101089.79
2023-05-16T02:47:37.228Z,101089.20
2023-05-16T02:48:37.705Z,101088.98
2023-05-16T02:48:51.855Z,101122.02
2023-05-16T02:49:52.445Z,101090.62
2023-05-16T02:50:53.078Z,101089.02
2023-05-16T02:51:53.624Z,101089.05
2023-05-16T02:52:54.148Z,101088.88
2023-05-16T02:53:54.877Z,101088.04
2023-05-16T02:55:09.814Z,101087.49
2023-05-16T02:55:56.540Z,101086.73
2023-05-16T02:56:57.110Z,101086.06
2023-05-16T02:57:57.716Z,101085.00
2023-05-16T02:58:59.325Z,101084.45
2023-05-16T02:59:58.910Z,101083.22
2023-05-16T03:00:59.832Z,101082.03
2023-05-16T03:02:00.236Z,101081.06
2023-05-16T03:03:00.877Z,101080.09
2023-05-16T03:04:01.454Z,101079.11
2023-05-16T03:05:01.953Z,101078.22
2023-05-16T03:06:02.054Z,101076.70
2023-05-16T03:07:02.606Z,101075.31
2023-05-16T03:08:03.060Z,101073.91
2023-05-16T03:09:05.066Z,101072.27
2023-05-16T03:10:04.312Z,101070.48
2023-05-16T03:11:04.388Z,101068.53
2023-05-16T03:12:06.607Z,101066.30
2023-05-16T03:13:05.357Z,101064.39
2023-05-16T03:14:05.978Z,101061.69
2023-05-16T03:15:06.724Z,101059.36
2023-05-16T03:16:07.335Z,101056.83
2023-05-16T03:17:07.930Z,101054.63
2023-05-16T03:18:08.526Z,101053.22
2023-05-16T03:19:09.229Z,101051.23
2023-05-16T03:19:18.418Z,101059.28
2023-05-16T03:20:18.549Z,101017.09
2023-05-16T03:21:19.055Z,101016.66
2023-05-16T03:22:19.718Z,101015.88
2023-05-16T03:23:20.364Z,101015.58
2023-05-16T03:24:20.962Z,101015.19
2023-05-16T03:25:21.463Z,101014.73
2023-05-16T03:26:22.162Z,101014.31
2023-05-16T03:27:22.723Z,101013.89
2023-05-16T03:28:23.229Z,101012.95
2023-05-16T03:29:23.766Z,101012.16
2023-05-16T03:30:24.316Z,101011.19
2023-05-16T03:31:25.100Z,101010.52
2023-05-16T03:32:25.556Z,101009.28
2023-05-16T03:33:26.114Z,101007.84
2023-05-16T03:34:26.167Z,101006.75
2023-05-16T03:35:27.175Z,101006.33
2023-05-16T03:36:27.636Z,101004.50
2023-05-16T03:37:28.538Z,101003.24
2023-05-16T03:38:29.097Z,101001.92
2023-05-16T03:39:30.244Z,101000.70
2023-05-16T03:40:29.776Z,100999.27
2023-05-16T03:41:31.387Z,100998.09
2023-05-16T03:42:31.104Z,100996.23
2023-05-16T03:43:31.658Z,100994.20
2023-05-16T03:44:32.176Z,100992.42
2023-05-16T03:45:33.816Z,100991.29
2023-05-16T03:46:33.559Z,100989.73
2023-05-16T03:47:34.186Z,100987.95
2023-05-16T03:48:34.540Z,100986.59
2023-05-16T03:49:35.172Z,100985.30
2023-05-16T03:49:43.748Z,101009.00
2023-05-16T03:50:44.507Z,100963.27
2023-05-16T03:51:45.217Z,100962.85
2023-05-16T03:52:45.742Z,100963.14
2023-05-16T03:53:45.862Z,100963.48
2023-05-16T03:54:46.443Z,100963.36
2023-05-16T03:55:48.641Z,100963.53
2023-05-16T03:56:47.671Z,100964.02
2023-05-16T03:58:21.685Z,101006.87
2023-05-16T03:59:22.213Z,100968.45
2023-05-16T04:00:22.836Z,100967.52
2023-05-16T04:01:23.685Z,100967.27
2023-05-16T04:02:24.361Z,100966.59
2023-05-16T04:03:25.071Z,100965.66
2023-05-16T04:04:25.658Z,100965.31
2023-05-16T04:05:26.625Z,100965.23
2023-05-16T04:06:26.799Z,100964.98
2023-05-16T04:07:28.717Z,100964.39
2023-05-16T04:08:28.320Z,100963.97
2023-05-16T04:09:28.871Z,100963.45
2023-05-16T04:10:29.470Z,100963.17
2023-05-16T04:11:30.233Z,100962.75
2023-05-16T04:12:30.940Z,100962.16
2023-05-16T04:13:31.518Z,100961.65
2023-05-16T04:14:32.072Z,100960.98
2023-05-16T04:15:32.801Z,100961.02
2023-05-16T04:16:33.526Z,100961.52
2023-05-16T04:17:34.267Z,100960.93
2023-05-16T04:18:34.846Z,100961.44
2023-05-16T04:19:35.258Z,100961.69
2023-05-16T04:20:35.863Z,100961.48
2023-05-16T04:21:36.510Z,100960.38
2023-05-16T04:22:37.104Z,100960.01
2023-05-16T04:23:37.615Z,100959.66
2023-05-16T04:24:38.502Z,100959.63
2023-05-16T04:25:39.091Z,100959.37
2023-05-16T04:26:39.479Z,100959.63
2023-05-16T04:27:40.229Z,100960.34
2023-05-16T04:28:40.784Z,100961.19
2023-05-16T04:28:49.483Z,101019.80
2023-05-16T04:29:50.482Z,100975.95
2023-05-16T04:30:50.992Z,100975.37
2023-05-16T04:31:51.705Z,100974.95
2023-05-16T04:32:52.416Z,100974.73
2023-05-16T04:33:52.461Z,100974.86
2023-05-16T04:34:53.018Z,100974.73
2023-05-16T04:35:53.057Z,100975.66
2023-05-16T04:36:53.314Z,100976.50
2023-05-16T04:37:53.883Z,100977.30
2023-05-16T04:38:54.182Z,100978.23
2023-05-16T04:39:54.769Z,100978.35
2023-05-16T04:40:55.296Z,100979.23
2023-05-16T04:41:56.048Z,100980.13
2023-05-16T04:42:56.300Z,100981.09
2023-05-16T04:43:56.949Z,100982.40
2023-05-16T04:44:57.629Z,100983.23
2023-05-16T04:45:58.188Z,100984.29
2023-05-16T04:46:58.804Z,100984.84
2023-05-16T04:47:59.345Z,100986.39
2023-05-16T04:48:59.879Z,100986.56
2023-05-16T04:50:00.586Z,100986.82
2023-05-16T04:51:01.415Z,100987.02
2023-05-16T04:52:01.967Z,100987.20
2023-05-16T04:53:02.279Z,100987.23
2023-05-16T04:54:02.866Z,100988.08
2023-05-16T04:55:03.452Z,100988.93
2023-05-16T04:56:03.469Z,100989.98
2023-05-16T04:57:04.216Z,100990.83
2023-05-16T04:58:04.959Z,100992.05
2023-05-16T04:59:05.662Z,100993.40
2023-05-16T05:00:06.523Z,100995.12
2023-05-16T05:00:16.261Z,101066.23
2023-05-16T05:01:17.133Z,101025.72
2023-05-16T05:02:17.884Z,101025.22
2023-05-16T05:03:18.486Z,101025.00
2023-05-16T05:04:19.106Z,101025.30
2023-05-16T05:05:19.736Z,101025.18
2023-05-16T05:06:20.245Z,101024.67
2023-05-16T05:07:21.086Z,101024.84
2023-05-16T05:08:21.645Z,101024.59
2023-05-16T05:09:22.356Z,101025.31
2023-05-16T05:10:22.903Z,101025.53
2023-05-16T05:11:23.565Z,101025.95
2023-05-16T05:12:24.128Z,101025.78
2023-05-16T05:13:24.763Z,101026.11
2023-05-16T05:14:25.400Z,101026.84
2023-05-16T05:15:26.149Z,101027.34
2023-05-16T05:16:26.474Z,101027.43
2023-05-16T05:17:27.157Z,101028.23
2023-05-16T05:18:27.991Z,101028.57
2023-05-16T05:19:28.688Z,101029.50
2023-05-16T05:20:29.202Z,101029.92
2023-05-16T05:21:29.746Z,101030.59
2023-05-16T05:22:30.617Z,101030.69
2023-05-16T05:23:31.179Z,101031.36
2023-05-16T05:24:31.819Z,101031.33
2023-05-16T05:25:32.353Z,101031.45
2023-05-16T05:26:33.345Z,101032.59
2023-05-16T05:27:33.931Z,101033.28
2023-05-16T05:28:34.627Z,101033.50
2023-05-16T05:29:35.294Z,101034.56
2023-05-16T05:30:35.853Z,101035.73
2023-05-16T05:31:36.503Z,101037.22
2023-05-16T05:31:47.171Z,101107.52
2023-05-16T05:32:47.734Z,101060.80
2023-05-16T05:33:48.216Z,101060.54
2023-05-16T05:34:48.820Z,101060.03
2023-05-16T05:35:49.368Z,101060.37
2023-05-16T05:36:49.934Z,101061.05
2023-05-16T05:37:50.571Z,101061.59
2023-05-16T05:38:51.228Z,101062.56
2023-05-16T05:39:51.208Z,101062.94
2023-05-16T05:40:51.794Z,101063.81
2023-05-16T05:41:52.452Z,101064.70
2023-05-16T05:42:53.975Z,101066.29
2023-05-16T05:43:53.572Z,101067.67
2023-05-16T05:44:54.220Z,101069.37
2023-05-16T05:45:54.730Z,101071.63
2023-05-16T05:46:55.235Z,101074.96
2023-05-16T05:47:55.866Z,101078.17
2023-05-16T05:48:56.261Z,101081.50
2023-05-16T05:49:58.180Z,101085.64
2023-05-16T05:50:57.816Z,101089.27
2023-05-16T05:51:58.371Z,101092.98
2023-05-16T05:52:58.429Z,101096.86
2023-05-16T05:53:59.394Z,101100.74
2023-05-16T05:54:59.395Z,101104.75
2023-05-16T05:55:59.622Z,101108.02
2023-05-16T05:57:00.160Z,101112.36
2023-05-16T05:58:01.196Z,101117.04
2023-05-16T05:59:01.198Z,101120.88
2023-05-16T06:00:01.808Z,101125.69
2023-05-16T06:01:02.483Z,101130.20
2023-05-16T06:02:03.275Z,101133.77
2023-05-16T06:03:03.983Z,101137.52
2023-05-16T06:03:13.176Z,101153.56
2023-05-16T06:04:13.228Z,101200.77
2023-05-16T06:05:13.773Z,101200.59
2023-05-16T06:06:14.441Z,101201.15
2023-05-16T06:07:18.095Z,101201.99
2023-05-16T06:08:15.484Z,101202.47
2023-05-16T06:09:16.446Z,101203.39
2023-05-16T06:10:16.956Z,101204.78
2023-05-16T06:11:17.648Z,101206.33
2023-05-16T06:13:24.071Z,101162.70
2023-05-16T06:14:24.550Z,101228.53
2023-05-16T06:15:56.378Z,101179.05
2023-05-16T06:16:57.329Z,101236.45
2023-05-16T06:17:57.978Z,101236.03
2023-05-16T06:18:58.297Z,101236.28
2023-05-16T06:19:58.363Z,101237.02
2023-05-16T06:20:58.866Z,101237.86
2023-05-16T06:21:59.456Z,101237.89
2023-05-16T06:23:00.962Z,101238.14
2023-05-16T06:24:00.447Z,101238.91
2023-05-16T06:25:00.646Z,101239.27
2023-05-16T06:26:01.198Z,101239.86
2023-05-16T06:27:01.818Z,101240.70
2023-05-16T06:28:01.835Z,101241.55
2023-05-16T06:29:01.889Z,101243.16
2023-05-16T06:30:02.765Z,101244.25
2023-05-16T06:31:03.323Z,101245.09
2023-05-16T06:32:03.961Z,101246.33
2023-05-16T06:33:04.583Z,101247.42
2023-05-16T06:34:05.270Z,101248.52
2023-05-16T06:35:05.860Z,101250.13
2023-05-16T06:36:06.544Z,101251.64
2023-05-16T06:37:07.179Z,101253.61
2023-05-16T06:38:07.660Z,101255.59
2023-05-16T06:39:08.279Z,101257.84
2023-05-16T06:40:09.113Z,101259.90
2023-05-16T06:41:10.084Z,101262.04
2023-05-16T06:42:10.707Z,101263.54
2023-05-16T06:43:11.377Z,101265.77
2023-05-16T06:44:11.546Z,101267.53
2023-05-16T06:45:12.393Z,101268.86
2023-05-16T06:46:13.263Z,101270.67
2023-05-16T06:47:13.718Z,101272.10
2023-05-16T06:48:14.491Z,101273.45
2023-05-16T06:49:14.555Z,101274.97
2023-05-16T06:49:24.267Z,101247.97
2023-05-16T06:50:24.266Z,101300.68
2023-05-16T06:51:25.019Z,101300.42
2023-05-16T06:52:25.954Z,101300.01
2023-05-16T06:53:26.112Z,101299.58
2023-05-16T06:54:26.730Z,101299.50
2023-05-16T06:55:27.865Z,101299.00
2023-05-16T06:56:28.351Z,101298.57
2023-05-16T06:57:29.051Z,101298.20
2023-05-16T06:58:29.780Z,101298.57
2023-05-16T06:59:30.929Z,101298.94
2023-05-16T07:00:30.551Z,101299.91
2023-05-16T07:01:31.445Z,101300.23
2023-05-16T07:02:32.170Z,101300.41
2023-05-16T07:03:32.778Z,101301.16
2023-05-16T07:04:33.304Z,101301.76
2023-05-16T07:05:33.985Z,101302.38
2023-05-16T07:06:34.445Z,101303.14
2023-05-16T07:07:34.955Z,101303.93
2023-05-16T07:08:35.601Z,101305.02
2023-05-16T07:09:35.994Z,101306.38
2023-05-16T07:10:36.575Z,101307.30
2023-05-16T07:11:37.104Z,101308.15
2023-05-16T07:12:37.841Z,101309.21
2023-05-16T07:13:38.390Z,101309.80
2023-05-16T07:14:39.985Z,101310.73
2023-05-16T07:15:39.659Z,101312.16
2023-05-16T07:16:40.257Z,101313.34
2023-05-16T07:17:40.919Z,101314.86
2023-05-16T07:18:41.591Z,101315.31
2023-05-16T07:19:42.209Z,101316.16
2023-05-16T07:20:43.073Z,101316.78
2023-05-16T07:20:51.819Z,101268.85
2023-05-16T07:21:52.690Z,101333.96
2023-05-16T07:22:53.359Z,101333.96
2023-05-16T07:23:54.002Z,101333.20
2023-05-16T07:24:55.060Z,101333.28
2023-05-16T07:25:54.724Z,101333.84
2023-05-16T07:26:55.320Z,101333.62
2023-05-16T07:27:56.248Z,101333.57
2023-05-16T07:28:56.929Z,101334.02
2023-05-16T07:29:57.484Z,101334.22
2023-05-16T07:30:58.240Z,101334.53
2023-05-16T07:31:59.011Z,101335.44
2023-05-16T07:32:59.770Z,101336.17
2023-05-16T07:34:00.329Z,101336.49
2023-05-16T07:35:01.008Z,101335.88
2023-05-16T07:36:15.450Z,101336.36
2023-05-16T07:37:02.270Z,101336.50
2023-05-16T07:38:02.992Z,101336.56
2023-05-16T07:39:03.798Z,101336.03
2023-05-16T07:40:04.477Z,101335.73
2023-05-16T07:41:05.176Z,101335.63
2023-05-16T07:42:05.874Z,101335.77
2023-05-16T07:43:06.494Z,101335.74
2023-05-16T07:44:06.555Z,101335.89
2023-05-16T07:45:07.232Z,101336.09
2023-05-16T07:46:07.927Z,101336.70
2023-05-16T07:47:08.511Z,101337.86
2023-05-16T07:48:08.571Z,101339.36
2023-05-16T07:49:09.303Z,101340.81
2023-05-16T07:50:09.915Z,101342.05
2023-05-16T07:51:10.517Z,101343.27
2023-05-16T07:52:11.199Z,101344.81
2023-05-16T07:52:20.683Z,101308.87
2023-05-16T07:53:21.289Z,101367.01
2023-05-16T07:54:22.196Z,101367.34
2023-05-16T07:55:22.968Z,101367.69
2023-05-16T07:56:23.812Z,101368.36
2023-05-16T07:57:25.199Z,101368.53
2023-05-16T07:58:25.315Z,101369.29
2023-05-16T07:59:26.133Z,101370.27
2023-05-16T08:00:26.286Z,101370.92
2023-05-16T08:01:27.074Z,101371.53
2023-05-16T08:09:33.017Z,101372.34
2023-05-16T08:10:33.295Z,101375.35
2023-05-16T08:11:34.187Z,101377.93
2023-05-16T08:12:34.135Z,101380.00
2023-05-16T08:13:34.290Z,101381.97
2023-05-16T08:14:34.780Z,101384.27
2023-05-16T08:15:34.892Z,101386.61
2023-05-16T08:16:35.698Z,101388.88
2023-05-16T08:17:36.290Z,101390.89
2023-05-16T08:18:38.007Z,101392.85
2023-05-16T08:19:37.004Z,101396.25
2023-05-16T08:20:37.730Z,101399.55
2023-05-16T08:21:38.279Z,101404.20
2023-05-16T08:22:39.195Z,101408.61
2023-05-16T08:23:40.113Z,101412.22
2023-05-16T08:24:40.784Z,101415.44
2023-05-16T08:25:41.090Z,101419.42
2023-05-16T08:26:41.328Z,101424.39
2023-05-16T08:27:41.988Z,101429.16
2023-05-16T08:28:42.618Z,101434.30
2023-05-16T08:29:43.377Z,101439.09
2023-05-16T08:30:45.222Z,101445.06
2023-05-16T08:30:52.859Z,101563.58
2023-05-16T08:31:53.018Z,101532.80
2023-05-16T08:32:53.827Z,101532.69
2023-05-16T08:33:54.625Z,101533.25
2023-05-16T08:34:55.180Z,101533.64
2023-05-16T08:35:55.985Z,101535.33
2023-05-16T08:36:56.692Z,101536.84
2023-05-16T08:37:57.392Z,101538.25
2023-05-16T08:38:57.933Z,101540.03
2023-05-16T08:39:58.571Z,101541.66
2023-05-16T08:40:59.186Z,101542.66
2023-05-16T08:41:59.802Z,101544.05
2023-05-16T08:43:00.326Z,101546.34
2023-05-16T08:44:00.958Z,101549.48
2023-05-16T08:45:01.045Z,101552.36
2023-05-16T08:46:01.654Z,101556.40
2023-05-16T08:47:02.373Z,101560.56
2023-05-16T08:48:03.024Z,101564.52
2023-05-16T08:49:03.349Z,101568.23
2023-05-16T08:50:04.187Z,101571.62
2023-05-16T08:51:04.712Z,101574.72
2023-05-16T08:52:05.360Z,101578.73
2023-05-16T08:53:05.890Z,101585.05
2023-05-16T08:54:05.964Z,101591.77
2023-05-16T08:55:10.840Z,101599.13
2023-05-16T08:56:07.462Z,101606.33
2023-05-16T08:57:07.746Z,101613.42
2023-05-16T08:58:08.475Z,101620.91
2023-05-16T08:59:09.157Z,101627.76
2023-05-16T09:00:09.787Z,101633.71
2023-05-16T09:01:10.532Z,101640.31
2023-05-16T09:02:11.038Z,101646.52
2023-05-16T09:03:11.880Z,101653.61
2023-05-16T09:04:12.326Z,101660.18
2023-05-16T09:04:21.050Z,101779.48
2023-05-16T09:05:20.985Z,101763.67
2023-05-16T09:06:21.643Z,101763.09
2023-05-16T09:07:22.276Z,101763.20
2023-05-16T09:08:22.710Z,101763.01
2023-05-16T09:09:22.837Z,101761.86
2023-05-16T09:10:23.603Z,101761.02
2023-05-16T09:11:24.369Z,101760.28
2023-05-16T09:12:24.995Z,101759.13
2023-05-16T09:13:25.565Z,101758.80
2023-05-16T09:14:26.255Z,101758.63
2023-05-16T09:15:26.723Z,101758.40
2023-05-16T09:16:27.440Z,101758.60
2023-05-16T09:17:38.939Z,101759.31
2023-05-16T09:18:54.797Z,101759.97
2023-05-16T09:19:54.689Z,101761.55
2023-05-16T09:20:56.581Z,101763.17
2023-05-16T09:21:56.380Z,101765.63
2023-05-16T09:22:56.501Z,101766.97
2023-05-16T09:23:57.001Z,101767.42
2023-05-16T09:24:57.585Z,101767.61
2023-05-16T09:25:58.474Z,101767.77
2023-05-16T09:26:59.022Z,101767.48
2023-05-16T09:27:59.935Z,101767.20
2023-05-16T09:29:00.587Z,101768.62
2023-05-16T09:30:00.756Z,101769.97
2023-05-16T09:31:01.146Z,101772.02
2023-05-16T09:32:01.828Z,101774.20
2023-05-16T09:32:10.997Z,101829.53
2023-05-16T09:33:11.751Z,101821.00
2023-05-16T09:34:12.339Z,101821.76
2023-05-16T09:35:12.965Z,101822.73
2023-05-16T09:36:13.616Z,101823.66
2023-05-16T09:37:14.292Z,101826.14
2023-05-16T09:38:15.254Z,101828.75
2023-05-16T09:39:16.246Z,101831.91
2023-05-16T09:40:16.877Z,101833.34
2023-05-16T09:41:17.598Z,101835.30
2023-05-16T09:42:18.325Z,101837.43
2023-05-16T09:43:18.955Z,101838.92
2023-05-16T09:44:19.595Z,101841.38
2023-05-16T09:45:20.418Z,101843.27
2023-05-16T09:46:21.065Z,101844.86
2023-05-16T09:47:21.730Z,101847.30
2023-05-16T09:48:22.233Z,101849.89
2023-05-16T09:49:23.895Z,101852.30
2023-05-16T09:50:23.025Z,101853.70
2023-05-16T09:51:23.601Z,101855.48
2023-05-16T09:52:24.485Z,101857.18
2023-05-16T09:53:25.255Z,101859.47
2023-05-16T09:54:25.990Z,101861.74
2023-05-16T09:55:26.959Z,101864.60
2023-05-16T09:56:27.481Z,101867.20
2023-05-16T09:57:28.406Z,101870.16
2023-05-16T09:58:28.997Z,101873.52
2023-05-16T09:59:29.319Z,101876.30
2023-05-16T10:00:29.891Z,101879.12
2023-05-16T10:01:30.583Z,101882.02
2023-05-16T10:02:31.402Z,101883.27
2023-05-16T10:03:56.663Z,101884.91
2023-05-16T10:07:12.210Z,101886.92
2023-05-16T10:07:21.728Z,101926.17
2023-05-16T10:08:21.951Z,101923.45
2023-05-16T10:09:22.671Z,101923.03
2023-05-16T10:10:23.397Z,101921.59
2023-05-16T10:11:24.024Z,101921.22
2023-05-16T10:12:25.875Z,101921.02
2023-05-16T10:13:25.705Z,101920.77
2023-05-16T10:14:26.788Z,101919.80
2023-05-16T10:15:27.734Z,101919.20
2023-05-16T10:16:28.348Z,101918.79
2023-05-16T10:17:28.671Z,101918.53
2023-05-16T10:18:29.274Z,101919.34
2023-05-16T10:19:30.213Z,101918.92
2023-05-16T10:20:30.364Z,101919.05
2023-05-16T10:21:30.905Z,101919.88
2023-05-16T10:22:31.502Z,101919.75
2023-05-16T10:23:32.152Z,101919.97
2023-05-16T10:24:32.869Z,101920.47
2023-05-16T10:25:32.995Z,101920.59
2023-05-16T10:26:33.738Z,101920.89
2023-05-16T10:27:34.357Z,101922.17
2023-05-16T10:28:35.085Z,101923.86
2023-05-16T10:29:46.533Z,101923.91
2023-05-16T10:30:36.534Z,101924.77
2023-05-16T10:31:37.226Z,101925.05
2023-05-16T10:32:38.571Z,101925.60
2023-05-16T10:33:38.259Z,101926.28
2023-05-16T10:34:38.903Z,101926.83
2023-05-16T10:35:39.694Z,101927.67
2023-05-16T10:36:40.528Z,101929.20
2023-05-16T10:37:41.125Z,101930.09
2023-05-16T10:38:41.764Z,101931.28
2023-05-16T10:38:51.005Z,101945.77
2023-05-16T10:39:51.867Z,101948.50
2023-05-16T10:40:52.452Z,101948.16
2023-05-16T10:41:53.047Z,101947.86
2023-05-16T10:42:53.665Z,101947.95
2023-05-16T10:43:54.299Z,101946.88
2023-05-16T10:45:05.042Z,101946.33
2023-05-16T10:45:55.693Z,101945.69
2023-05-16T10:46:56.307Z,101944.59
2023-05-16T10:47:57.013Z,101943.36
2023-05-16T10:48:58.600Z,101942.98
2023-05-16T10:49:57.694Z,101942.16
2023-05-16T10:50:58.554Z,101941.87
2023-05-16T10:51:59.259Z,101941.19
2023-05-16T10:53:00.202Z,101939.48
2023-05-16T10:54:00.973Z,101936.98
2023-05-16T10:55:01.594Z,101936.34
2023-05-16T10:56:02.268Z,101936.08
2023-05-16T10:57:02.896Z,101934.63
2023-05-16T10:58:03.672Z,101934.03
2023-05-16T10:59:04.432Z,101933.34
2023-05-16T11:00:05.042Z,101932.31
2023-05-16T11:01:05.670Z,101931.06
2023-05-16T11:02:06.488Z,101930.30
2023-05-16T11:03:10.256Z,101930.03
2023-05-16T11:04:07.829Z,101928.95
2023-05-16T11:05:08.464Z,101928.14
2023-05-16T11:06:09.177Z,101927.45
2023-05-16T11:07:09.289Z,101927.02
2023-05-16T11:08:09.779Z,101925.70
2023-05-16T11:09:10.686Z,101925.21
2023-05-16T11:10:11.072Z,101926.06
2023-05-16T11:11:11.625Z,101925.52
2023-05-16T11:11:21.286Z,101918.45
2023-05-16T11:12:21.675Z,101923.82
2023-05-16T11:13:22.260Z,101923.41
2023-05-16T11:14:22.965Z,101923.28
2023-05-16T11:15:23.875Z,101923.66
2023-05-16T11:16:24.661Z,101923.66
2023-05-16T11:17:25.399Z,101923.58
2023-05-16T11:18:25.643Z,101923.80
2023-05-16T11:19:26.272Z,101924.53
2023-05-16T11:20:26.394Z,101924.07
2023-05-16T11:21:27.065Z,101924.70
2023-05-16T11:22:27.795Z,101923.97
2023-05-16T11:23:28.600Z,101924.09
2023-05-16T11:24:29.220Z,101924.60
2023-05-16T11:25:29.991Z,101925.23